createdAt,value
2018-02-07T05:32:49.572Z,-3.60
2018-02-07T05:35:17.836Z,-3.60
2018-02-07T05:37:46.852Z,-3.60
2018-02-07T05:40:15.128Z,-3.60
2018-02-07T05:42:43.474Z,-3.60
2018-02-07T05:45:11.687Z,-3.60
2018-02-07T05:47:40.049Z,-3.70
2018-02-07T05:50:08.305Z,-3.70
2018-02-07T05:52:37.297Z,-3.80
2018-02-07T05:55:07.236Z,-3.80
2018-02-07T05:57:35.464Z,-3.80
2018-02-07T06:00:03.684Z,-3.80
2018-02-07T06:02:31.944Z,-3.80
2018-02-07T06:05:00.937Z,-3.60
2018-02-07T06:07:29.936Z,-3.70
2018-02-07T06:09:58.229Z,-3.70
2018-02-07T06:12:26.508Z,-3.60
2018-02-07T06:14:54.737Z,-3.60
2018-02-07T06:17:23.061Z,-3.70
2018-02-07T06:19:51.305Z,-3.50
2018-02-07T06:22:20.294Z,-3.40
2018-02-07T06:24:49.496Z,-3.30
2018-02-07T06:27:18.309Z,-3.40
2018-02-07T06:29:46.556Z,-3.30
2018-02-07T06:32:15.554Z,-3.30
2018-02-07T06:34:44.679Z,-3.30
2018-02-07T06:37:13.268Z,-3.30
2018-02-07T06:39:41.540Z,-3.30
2018-02-07T06:42:10.220Z,-3.30
2018-02-07T06:44:38.500Z,-3.30
2018-02-07T06:47:06.753Z,-3.30
2018-02-07T06:49:35.749Z,-3.20
2018-02-07T06:52:04.780Z,-3.20
2018-02-07T06:54:33.006Z,-3.30
2018-02-07T06:57:01.249Z,-3.20
2018-02-07T06:59:29.600Z,-3.20
2018-02-07T07:01:57.877Z,-3.10
2018-02-07T07:04:26.208Z,-3.10
2018-02-07T07:06:54.533Z,-3.00
2018-02-07T07:09:23.541Z,-2.90
2018-02-07T07:11:51.801Z,-2.90
2018-02-07T07:14:20.081Z,-2.90
2018-02-07T07:16:48.353Z,-2.80
2018-02-07T07:19:16.607Z,-2.80
2018-02-07T07:21:45.684Z,-2.70
2018-02-07T07:24:13.864Z,-2.70
2018-02-07T07:26:42.888Z,-2.50
2018-02-07T07:29:11.135Z,-2.60
2018-02-07T07:34:49.289Z,-2.40
2018-02-07T07:37:18.313Z,-2.30
2018-02-07T07:39:46.665Z,-2.30
2018-02-07T07:42:14.893Z,-2.30
2018-02-07T07:44:43.152Z,-2.20
2018-02-07T07:47:11.424Z,-2.20
2018-02-07T07:49:39.656Z,-2.20
2018-02-07T07:52:07.976Z,-2.10
2018-02-07T07:54:36.238Z,-2.00
2018-02-07T07:57:04.469Z,-1.90
2018-02-07T07:59:32.732Z,-1.90
2018-02-07T08:02:00.964Z,-1.80
2018-02-07T08:04:29.232Z,-1.70
2018-02-07T08:06:58.263Z,-1.50
2018-02-07T08:09:26.810Z,-1.50
2018-02-07T08:11:56.207Z,-1.30
2018-02-07T08:14:25.227Z,-1.20
2018-02-07T08:16:53.469Z,-1.20
2018-02-07T08:19:21.716Z,-1.00
2018-02-07T08:21:49.948Z,-0.90
2018-02-07T08:24:18.245Z,-0.70
2018-02-07T08:26:46.548Z,-0.60
2018-02-07T08:29:14.813Z,-0.50
2018-02-07T08:31:43.036Z,-0.30
2018-02-07T08:34:12.071Z,-0.10
2018-02-07T08:36:40.344Z,-0.10
2018-02-07T08:39:08.620Z,-0.10
2018-02-07T08:41:36.845Z,-0.10
2018-02-07T08:44:05.107Z,-0.10
2018-02-07T08:46:33.341Z,-0.10
2018-02-07T08:49:01.620Z,0.00
2018-02-07T08:51:29.840Z,0.10
2018-02-07T08:53:58.865Z,0.50
2018-02-07T08:56:27.849Z,0.40
2018-02-07T08:58:56.161Z,0.40
2018-02-07T09:01:25.296Z,0.50
2018-02-07T09:03:53.557Z,0.60
2018-02-07T09:06:21.883Z,0.70
2018-02-07T09:08:50.193Z,0.60
2018-02-07T09:11:18.408Z,0.60
2018-02-07T09:13:47.568Z,0.70
2018-02-07T09:16:15.785Z,0.80
2018-02-07T09:18:44.033Z,0.90
2018-02-07T09:21:12.280Z,0.90
2018-02-07T09:23:40.501Z,1.00
2018-02-07T09:26:08.845Z,1.00
2018-02-07T09:28:37.117Z,1.10
2018-02-07T09:31:05.402Z,1.20
2018-02-07T09:33:33.676Z,1.30
2018-02-07T09:36:01.953Z,1.30
2018-02-07T09:38:30.204Z,1.30
2018-02-07T09:40:59.224Z,1.30
2018-02-07T09:43:27.496Z,1.30
2018-02-07T09:45:55.777Z,1.30
2018-02-07T09:48:24.049Z,1.40
2018-02-07T09:50:52.280Z,1.50
2018-02-07T09:53:20.524Z,1.50
2018-02-07T09:55:48.783Z,1.50
2018-02-07T09:58:17.060Z,1.80
2018-02-07T10:00:45.275Z,1.80
2018-02-07T10:03:13.520Z,1.60
2018-02-07T10:05:41.742Z,1.80
2018-02-07T10:08:10.773Z,2.00
2018-02-07T10:10:39.052Z,1.90
2018-02-07T10:13:07.301Z,2.10
2018-02-07T10:15:36.420Z,2.50
2018-02-07T10:18:04.706Z,2.40
2018-02-07T10:20:32.949Z,2.80
2018-02-07T10:23:01.937Z,3.10
2018-02-07T10:25:30.961Z,3.20
2018-02-07T10:27:59.720Z,3.10
2018-02-07T10:30:27.937Z,3.10
2018-02-07T10:32:56.193Z,2.70
2018-02-07T10:35:24.432Z,2.60
2018-02-07T10:37:52.761Z,2.40
2018-02-07T10:40:21.316Z,2.30
2018-02-07T10:42:50.725Z,2.30
2018-02-07T10:45:18.976Z,2.30
2018-02-07T10:47:47.292Z,2.40
2018-02-07T10:50:15.580Z,2.60
2018-02-07T10:52:43.821Z,2.90
2018-02-07T10:55:12.813Z,3.00
2018-02-07T10:57:41.828Z,3.00
2018-02-07T11:00:10.117Z,3.00
2018-02-07T11:02:38.361Z,2.60
2018-02-07T11:05:07.377Z,2.30
2018-02-07T11:07:35.665Z,2.30
2018-02-07T11:10:03.909Z,2.20
2018-02-07T11:12:33.720Z,1.60
2018-02-07T11:15:02.705Z,1.50
2018-02-07T11:17:31.736Z,1.50
2018-02-07T11:20:00.011Z,1.50
2018-02-07T11:22:29.101Z,1.50
2018-02-07T11:24:57.340Z,1.40
2018-02-07T11:27:25.557Z,1.50
2018-02-07T11:29:53.814Z,1.50
2018-02-07T11:32:22.100Z,1.50
2018-02-07T11:34:50.322Z,1.40
2018-02-07T11:37:18.666Z,1.40
2018-02-07T11:39:46.885Z,1.30
2018-02-07T11:42:16.745Z,1.50
2018-02-07T11:44:44.993Z,1.50
2018-02-07T11:47:14.009Z,1.60
2018-02-07T11:49:42.261Z,1.60
2018-02-07T11:52:11.269Z,1.80
2018-02-07T11:54:40.448Z,1.80
2018-02-07T11:57:09.478Z,2.00
2018-02-07T11:59:37.721Z,1.90
2018-02-07T12:02:06.020Z,2.00
2018-02-07T12:04:34.253Z,2.00
2018-02-07T12:07:02.580Z,2.00
2018-02-07T12:09:31.777Z,2.00
2018-02-07T12:12:00.032Z,2.10
2018-02-07T12:14:29.075Z,2.40
2018-02-07T12:16:57.597Z,2.40
2018-02-07T12:19:25.908Z,2.60
2018-02-07T12:21:54.196Z,3.00
2018-02-07T12:24:22.385Z,3.10
2018-02-07T12:26:50.737Z,3.00
2018-02-07T12:29:18.952Z,2.70
2018-02-07T12:31:47.196Z,2.70
2018-02-07T12:34:15.413Z,2.60
2018-02-07T12:36:43.659Z,2.70
2018-02-07T12:39:11.930Z,2.60
2018-02-07T12:41:40.164Z,2.80
2018-02-07T12:44:09.153Z,2.70
2018-02-07T12:46:37.462Z,2.60
2018-02-07T12:49:05.682Z,2.70
2018-02-07T12:51:33.901Z,3.00
2018-02-07T12:54:03.317Z,3.60
2018-02-07T12:56:31.560Z,3.60
2018-02-07T12:58:59.782Z,3.50
2018-02-07T13:01:28.024Z,3.60
2018-02-07T13:03:57.032Z,3.40
2018-02-07T13:06:25.312Z,3.40
2018-02-07T13:08:54.408Z,3.50
2018-02-07T13:11:22.689Z,3.50
2018-02-07T13:13:50.900Z,3.60
2018-02-07T13:16:19.154Z,3.60
2018-02-07T13:18:47.397Z,3.60
2018-02-07T13:21:16.508Z,3.60
2018-02-07T13:23:44.784Z,3.60
2018-02-07T13:26:13.067Z,3.50
2018-02-07T13:28:41.340Z,3.30
2018-02-07T13:31:10.609Z,3.20
2018-02-07T13:33:38.796Z,3.20
2018-02-07T13:36:07.805Z,3.10
2018-02-07T13:38:36.956Z,3.10
2018-02-07T13:41:05.173Z,3.00
2018-02-07T13:43:33.426Z,3.00
2018-02-07T13:46:01.653Z,3.10
2018-02-07T13:48:30.184Z,3.10
2018-02-07T13:50:58.601Z,3.10
2018-02-07T13:53:26.820Z,3.00
2018-02-07T13:55:55.124Z,3.00
2018-02-07T13:58:24.214Z,3.00
2018-02-07T14:00:53.256Z,3.00
2018-02-07T14:03:21.472Z,3.00
2018-02-07T14:05:49.712Z,3.00
2018-02-07T14:08:17.934Z,2.90
2018-02-07T14:10:46.177Z,2.60
2018-02-07T14:13:14.429Z,2.50
2018-02-07T14:15:43.541Z,2.40
2018-02-07T14:18:11.758Z,2.30
2018-02-07T14:20:40.477Z,2.20
2018-02-07T14:23:08.752Z,2.10
2018-02-07T14:25:37.005Z,2.10
2018-02-07T14:28:06.012Z,1.80
2018-02-07T14:30:34.233Z,1.80
2018-02-07T14:33:04.833Z,1.80
2018-02-07T14:35:33.054Z,1.80
2018-02-07T14:38:01.285Z,1.80
2018-02-07T14:40:29.533Z,1.70
2018-02-07T14:42:58.612Z,1.70
2018-02-07T14:45:26.928Z,1.70
2018-02-07T14:47:55.181Z,1.70
2018-02-07T14:50:24.382Z,1.70
2018-02-07T14:52:53.472Z,1.80
2018-02-07T14:55:21.679Z,1.70
2018-02-07T14:57:49.953Z,1.70
2018-02-07T15:00:18.176Z,1.60
2018-02-07T15:02:46.424Z,1.50
2018-02-07T15:05:14.664Z,1.40
2018-02-07T15:07:43.672Z,1.30
2018-02-07T15:10:11.928Z,1.30
2018-02-07T15:12:41.664Z,1.20
2018-02-07T15:15:09.952Z,1.20
2018-02-07T15:17:38.932Z,1.30
2018-02-07T15:20:08.202Z,1.10
2018-02-07T15:22:36.424Z,1.20
2018-02-07T15:25:04.637Z,1.20
2018-02-07T15:27:32.862Z,1.10
2018-02-07T15:30:01.108Z,1.00
2018-02-07T15:32:30.131Z,1.00
2018-02-07T15:34:58.484Z,1.00
2018-02-07T15:37:27.504Z,0.80
2018-02-07T15:39:55.725Z,0.80
2018-02-07T15:42:23.968Z,0.70
2018-02-07T15:44:52.229Z,0.70
2018-02-07T15:47:20.452Z,0.70
2018-02-07T15:49:48.780Z,0.60
2018-02-07T15:52:17.013Z,0.60
2018-02-07T15:54:45.241Z,0.50
2018-02-07T15:57:13.521Z,0.50
2018-02-07T15:59:41.741Z,0.40
2018-02-07T16:02:09.977Z,0.40
2018-02-07T16:04:38.249Z,0.40
2018-02-07T16:07:06.997Z,0.30
2018-02-07T16:09:35.385Z,0.30
2018-02-07T16:12:04.401Z,0.30
2018-02-07T16:14:32.722Z,0.30
2018-02-07T16:17:01.049Z,0.30
2018-02-07T16:19:30.068Z,0.20
2018-02-07T16:21:58.343Z,0.20
2018-02-07T16:24:27.366Z,0.10
2018-02-07T16:26:55.644Z,0.10
2018-02-07T16:29:24.131Z,0.10
2018-02-07T16:31:53.250Z,0.10
2018-02-07T16:34:21.522Z,0.10
2018-02-07T16:36:50.692Z,0.10
2018-02-07T16:39:19.029Z,0.10
2018-02-07T16:41:52.073Z,0.10
2018-02-07T16:44:21.121Z,0.00
2018-02-07T16:46:49.356Z,0.10
2018-02-07T16:49:17.605Z,0.10
2018-02-07T16:51:45.872Z,0.10
2018-02-07T16:54:14.139Z,0.10
2018-02-07T16:56:42.518Z,0.10
2018-02-07T16:59:11.272Z,0.10
2018-02-07T17:01:39.530Z,0.10
2018-02-07T17:04:07.765Z,0.10
2018-02-07T17:06:36.016Z,0.10
2018-02-07T17:09:04.329Z,0.10
2018-02-07T17:11:32.636Z,0.10
2018-02-07T17:14:01.721Z,0.10
2018-02-07T17:16:29.984Z,0.10
2018-02-07T17:18:58.225Z,0.10
2018-02-07T17:21:26.508Z,0.10
2018-02-07T17:23:54.839Z,0.10
2018-02-07T17:26:23.075Z,0.10
2018-02-07T17:28:58.198Z,0.10
2018-02-07T17:31:27.124Z,0.10
2018-02-07T17:33:55.407Z,0.10
2018-02-07T17:36:23.658Z,0.10
2018-02-07T17:38:52.053Z,0.10
2018-02-07T17:41:20.309Z,0.10
2018-02-07T17:43:48.564Z,0.10
2018-02-07T17:46:16.832Z,0.10
2018-02-07T17:48:45.216Z,0.10
2018-02-07T17:51:13.440Z,0.10
2018-02-07T17:53:41.666Z,0.10
2018-02-07T17:56:09.917Z,0.10
2018-02-07T17:58:38.929Z,0.10
2018-02-07T18:01:07.233Z,0.10
2018-02-07T18:03:35.445Z,0.10
2018-02-07T18:06:03.761Z,0.10
2018-02-07T18:08:32.911Z,0.10
2018-02-07T18:11:01.121Z,0.10
2018-02-07T18:13:29.378Z,0.10
2018-02-07T18:15:57.611Z,0.10
2018-02-07T18:18:26.035Z,0.00
2018-02-07T18:20:54.237Z,0.10
2018-02-07T18:23:22.512Z,0.10
2018-02-07T18:25:50.792Z,0.10
2018-02-07T18:28:19.064Z,0.10
2018-02-07T18:30:47.294Z,0.10
2018-02-07T18:33:15.570Z,0.20
2018-02-07T18:35:43.798Z,0.10
2018-02-07T18:38:12.073Z,0.10
2018-02-07T18:40:40.352Z,0.10
2018-02-07T18:43:08.605Z,0.10
2018-02-07T18:45:37.620Z,0.10
2018-02-07T18:48:05.894Z,0.10
2018-02-07T18:50:34.113Z,0.10
2018-02-07T18:53:02.454Z,0.00
2018-02-07T18:55:30.809Z,0.00
2018-02-07T18:57:59.783Z,0.10
2018-02-07T19:00:28.801Z,0.10
2018-02-07T19:02:57.016Z,0.10
2018-02-07T19:05:26.456Z,0.10
2018-02-07T19:07:54.913Z,0.10
2018-02-07T19:10:23.244Z,0.00
2018-02-07T19:12:51.461Z,0.00
2018-02-07T19:15:21.232Z,-0.10
2018-02-07T19:17:49.476Z,-0.10
2018-02-07T19:20:18.608Z,-0.10
2018-02-07T19:22:46.836Z,-0.10
2018-02-07T19:25:15.077Z,-0.10
2018-02-07T19:27:43.333Z,-0.10
2018-02-07T19:30:11.609Z,-0.10
2018-02-07T19:32:39.832Z,-0.10
2018-02-07T19:35:09.606Z,-0.10
2018-02-07T19:37:37.875Z,-0.10
2018-02-07T19:40:06.085Z,-0.10
2018-02-07T19:42:35.454Z,-0.10
2018-02-07T19:45:04.510Z,-0.10
2018-02-07T19:47:32.777Z,-0.10
2018-02-07T19:50:01.063Z,0.00
2018-02-07T19:52:29.252Z,0.00
2018-02-07T19:54:58.265Z,-0.10
2018-02-07T19:57:26.512Z,-0.10
2018-02-07T19:59:54.816Z,-0.10
2018-02-07T20:02:23.097Z,-0.10
2018-02-07T20:04:51.359Z,-0.10
2018-02-07T20:07:20.477Z,-0.10
2018-02-07T20:09:48.729Z,-0.10
2018-02-07T20:12:17.754Z,-0.10
2018-02-07T20:14:45.988Z,-0.10
2018-02-07T20:17:14.289Z,-0.10
2018-02-07T20:19:42.540Z,0.00
2018-02-07T20:22:11.534Z,-0.10
2018-02-07T20:24:40.534Z,-0.10
2018-02-07T20:27:08.811Z,-0.10
2018-02-07T20:29:37.049Z,0.00
2018-02-07T20:32:05.265Z,-0.10
2018-02-07T20:34:34.277Z,-0.10
2018-02-07T20:37:02.484Z,-0.10
2018-02-07T20:39:30.724Z,-0.10
2018-02-07T20:41:59.022Z,0.00
2018-02-07T20:44:27.268Z,-0.10
2018-02-07T20:46:56.314Z,-0.10
2018-02-07T20:49:24.567Z,-0.10
2018-02-07T20:51:52.784Z,-0.10
2018-02-07T20:54:22.559Z,-0.10
2018-02-07T20:56:50.799Z,-0.10
2018-02-07T20:59:19.859Z,-0.10
2018-02-07T21:01:48.105Z,-0.10
2018-02-07T21:04:16.326Z,-0.10
2018-02-07T21:06:44.541Z,-0.10
2018-02-07T21:09:12.787Z,-0.10
2018-02-07T21:11:41.765Z,0.00
2018-02-07T21:14:11.512Z,-0.10
2018-02-07T21:16:39.772Z,-0.10
2018-02-07T21:19:08.004Z,0.00
2018-02-07T21:21:36.211Z,0.00
2018-02-07T21:24:04.521Z,0.00
2018-02-07T21:26:32.732Z,-0.10
2018-02-07T21:29:01.801Z,0.00
2018-02-07T21:31:30.008Z,0.00
2018-02-07T21:33:58.261Z,0.00
2018-02-07T21:36:26.464Z,0.00
2018-02-07T21:38:54.708Z,0.00
2018-02-07T21:41:22.973Z,0.00
2018-02-07T21:43:51.180Z,0.00
2018-02-07T21:46:19.428Z,0.00
2018-02-07T21:48:47.680Z,0.00
2018-02-07T21:51:16.682Z,0.00
2018-02-07T21:53:45.648Z,0.00
2018-02-07T21:56:13.926Z,0.00
2018-02-07T21:58:42.132Z,0.00
2018-02-07T22:01:10.368Z,0.00
2018-02-07T22:03:38.588Z,0.00
2018-02-07T22:06:06.857Z,0.10
2018-02-07T22:08:35.137Z,0.00
2018-02-07T22:11:03.418Z,0.00
2018-02-07T22:13:31.688Z,0.00
2018-02-07T22:15:59.970Z,0.00
2018-02-07T22:18:28.178Z,0.00
2018-02-07T22:20:56.388Z,0.00
2018-02-07T22:23:24.625Z,0.00
2018-02-07T22:25:52.865Z,0.00
2018-02-07T22:28:21.105Z,0.00
2018-02-07T22:30:49.333Z,0.00
2018-02-07T22:33:17.597Z,0.00
2018-02-07T22:35:45.808Z,0.00
2018-02-07T22:38:14.148Z,0.00
2018-02-07T22:40:42.437Z,0.00
2018-02-07T22:43:10.712Z,0.00
2018-02-07T22:45:38.949Z,0.00
2018-02-07T22:48:07.252Z,0.00
2018-02-07T22:50:35.532Z,0.00
2018-02-07T22:53:03.817Z,0.10
2018-02-07T22:55:32.088Z,0.00
2018-02-07T22:58:00.371Z,0.10
2018-02-07T23:00:28.575Z,0.00
2018-02-07T23:02:56.816Z,0.00
2018-02-07T23:05:25.024Z,0.00
2018-02-07T23:07:53.538Z,0.00
2018-02-07T23:10:21.777Z,0.00
2018-02-07T23:12:49.985Z,0.00
2018-02-07T23:15:18.225Z,0.00
2018-02-07T23:17:46.432Z,0.00
2018-02-07T23:20:14.744Z,0.00
2018-02-07T23:22:43.780Z,0.00
2018-02-07T23:25:12.029Z,0.00
2018-02-07T23:27:40.269Z,0.00
2018-02-07T23:30:08.493Z,0.00
2018-02-07T23:32:36.818Z,0.00
2018-02-07T23:35:05.124Z,0.00
2018-02-07T23:37:33.400Z,-0.10
2018-02-07T23:40:01.679Z,-0.10
2018-02-07T23:42:29.927Z,-0.10
2018-02-07T23:44:59.657Z,-0.10
